Time;durP1;ratioP1;P1;durP2;ratioP2;P2;SDS_P1;SDS_P2;PMS_P1;PMS_P2;Temp;Humidity;BMP_temperature;BMP_pressure;BME280_temperature;BME280_humidity;BME280_pressure;Samples;Min_cycle;Max_cycle;Signal;HPM_P1;HPM_P2
2021/03/22 00:02:18;;;;;;;4.57;2.50;;;;;;;;;;5113602;28;20214;-48
2021/03/22 00:04:44;;;;;;;6.00;2.75;;;;;;;;;;5114041;28;20250;-48
2021/03/22 00:07:10;;;;;;;4.93;2.53;;;;;;;;;;5114827;28;20177;-49
2021/03/22 00:09:37;;;;;;;5.07;2.40;;;;;;;;;;5114678;28;20264;-49
2021/03/22 00:12:03;;;;;;;5.15;2.50;;;;;;;;;;5114411;28;20186;-49
2021/03/22 00:14:29;;;;;;;4.60;2.33;;;;;;;;;;5113762;28;20193;-48
2021/03/22 00:16:55;;;;;;;6.80;2.60;;;;;;;;;;5114678;28;20226;-49
2021/03/22 00:19:21;;;;;;;3.85;2.20;;;;;;;;;;5114752;28;20184;-49
2021/03/22 00:21:47;;;;;;;4.03;2.03;;;;;;;;;;5114442;28;20188;-49
2021/03/22 00:24:13;;;;;;;5.07;2.67;;;;;;;;;;5114120;28;20209;-48
2021/03/22 00:26:39;;;;;;;4.80;2.63;;;;;;;;;;5114522;28;20178;-49
2021/03/22 00:29:05;;;;;;;2.75;1.88;;;;;;;;;;5114446;28;20173;-48
2021/03/22 00:31:31;;;;;;;4.78;2.25;;;;;;;;;;5114473;28;20177;-48
2021/03/22 00:33:57;;;;;;;3.47;1.98;;;;;;;;;;5114516;28;20177;-50
2021/03/22 00:36:24;;;;;;;3.95;2.13;;;;;;;;;;5113377;28;20449;-49
2021/03/22 00:38:50;;;;;;;3.30;2.28;;;;;;;;;;5114529;28;20184;-48
2021/03/22 00:41:16;;;;;;;3.22;2.15;;;;;;;;;;5114125;28;20503;-49
2021/03/22 00:43:42;;;;;;;3.70;1.85;;;;;;;;;;5096046;28;20324;-49
2021/03/22 00:46:08;;;;;;;5.03;2.20;;;;;;;;;;5113406;28;20603;-49
2021/03/22 00:48:35;;;;;;;3.97;2.00;;;;;;;;;;5113887;28;20229;-48
2021/03/22 00:51:04;;;;;;;2.80;1.80;;;;;;;;;;5114297;28;20230;-48
2021/03/22 00:53:30;;;;;;;3.72;2.00;;;;;;;;;;5113717;28;20425;-48
2021/03/22 00:55:56;;;;;;;5.20;2.08;;;;;;;;;;5113704;28;20181;-49
2021/03/22 00:58:22;;;;;;;3.53;1.98;;;;;;;;;;5114098;28;20245;-48
2021/03/22 01:00:48;;;;;;;4.43;2.10;;;;;;;;;;5117241;28;20232;-48
2021/03/22 01:03:16;;;;;;;3.60;2.13;;;;;;;;;;5117900;28;20213;-49
2021/03/22 01:05:43;;;;;;;4.07;2.42;;;;;;;;;;5117668;28;20185;-48
2021/03/22 01:08:09;;;;;;;4.00;2.00;;;;;;;;;;5118444;28;20173;-49
2021/03/22 01:10:35;;;;;;;3.95;2.10;;;;;;;;;;5118026;28;20561;-49
2021/03/22 01:13:01;;;;;;;3.17;2.00;;;;;;;;;;5118167;28;20204;-48
2021/03/22 01:15:27;;;;;;;3.47;1.88;;;;;;;;;;5117322;28;20459;-49
2021/03/22 01:17:54;;;;;;;4.10;2.10;;;;;;;;;;5118181;28;20173;-48
2021/03/22 01:20:23;;;;;;;3.10;1.80;;;;;;;;;;5104946;28;20192;-50
2021/03/22 01:22:49;;;;;;;3.10;1.80;;;;;;;;;;5117623;28;20212;-49
2021/03/22 01:25:15;;;;;;;3.63;2.20;;;;;;;;;;5117286;28;20185;-49
2021/03/22 01:27:42;;;;;;;4.47;2.38;;;;;;;;;;5117698;28;20318;-49
2021/03/22 01:30:19;;;;;;;3.25;1.80;;;;;;;;;;5117699;28;20603;-48
2021/03/22 01:32:45;;;;;;;3.50;1.90;;;;;;;;;;5118101;28;20181;-50
2021/03/22 01:35:11;;;;;;;5.53;1.85;;;;;;;;;;5111794;28;20180;-50
2021/03/22 01:37:37;;;;;;;2.17;1.80;;;;;;;;;;5116997;28;20587;-49
2021/03/22 01:40:05;;;;;;;2.35;1.48;;;;;;;;;;5117993;28;20174;-48
2021/03/22 01:42:45;;;;;;;3.63;1.80;;;;;;;;;;5116695;28;20200;-49
2021/03/22 01:45:11;;;;;;;3.88;1.77;;;;;;;;;;5117330;28;20181;-49
2021/03/22 01:47:38;;;;;;;3.53;1.90;;;;;;;;;;5117225;28;20181;-48
2021/03/22 01:50:22;;;;;;;3.35;1.63;;;;;;;;;;5117470;28;20177;-50
2021/03/22 01:52:49;;;;;;;4.45;2.22;;;;;;;;;;5117598;28;20607;-49
2021/03/22 01:55:16;;;;;;;3.70;1.90;;;;;;;;;;5116472;28;20398;-50
2021/03/22 01:57:44;;;;;;;3.55;2.05;;;;;;;;;;5116794;28;20187;-48
2021/03/22 02:00:27;;;;;;;4.22;2.10;;;;;;;;;;5099629;28;20185;-48
2021/03/22 02:02:59;;;;;;;3.08;1.58;;;;;;;;;;5117267;28;20281;-49
2021/03/22 02:05:28;;;;;;;3.22;1.77;;;;;;;;;;5116656;28;20173;-48
2021/03/22 02:08:10;;;;;;;2.85;1.58;;;;;;;;;;5107509;28;20533;-48
2021/03/22 02:10:37;;;;;;;3.97;1.77;;;;;;;;;;5100628;28;20250;-49
2021/03/22 02:13:04;;;;;;;3.28;1.88;;;;;;;;;;5116472;28;20189;-49
2021/03/22 02:15:30;;;;;;;2.45;1.58;;;;;;;;;;5116079;28;20181;-49
2021/03/22 02:17:56;;;;;;;4.97;1.60;;;;;;;;;;5112740;28;20195;-48
2021/03/22 02:20:40;;;;;;;4.07;1.60;;;;;;;;;;5116458;28;20181;-48
2021/03/22 02:23:25;;;;;;;4.50;1.98;;;;;;;;;;5116780;28;20541;-48
2021/03/22 02:25:57;;;;;;;3.75;1.75;;;;;;;;;;5104542;28;20264;-48
2021/03/22 02:28:26;;;;;;;2.92;1.50;;;;;;;;;;5116356;28;20187;-49
2021/03/22 02:31:02;;;;;;;2.53;1.50;;;;;;;;;;5116733;28;20176;-48
2021/03/22 02:33:47;;;;;;;3.35;1.80;;;;;;;;;;5116285;28;20200;-48
2021/03/22 02:36:14;;;;;;;3.53;1.70;;;;;;;;;;5116094;28;20181;-48
2021/03/22 02:38:44;;;;;;;3.03;1.70;;;;;;;;;;5116108;28;20447;-48
2021/03/22 02:41:13;;;;;;;2.83;1.60;;;;;;;;;;5115102;28;20234;-49
2021/03/22 02:43:39;;;;;;;3.53;1.95;;;;;;;;;;5114660;28;20584;-49
2021/03/22 02:46:06;;;;;;;5.82;1.70;;;;;;;;;;5116072;28;20182;-49
2021/03/22 02:48:33;;;;;;;3.63;1.70;;;;;;;;;;5116022;28;20177;-48
2021/03/22 02:51:08;;;;;;;3.08;1.85;;;;;;;;;;5116448;28;20173;-49
2021/03/22 02:53:42;;;;;;;3.50;1.58;;;;;;;;;;5115638;28;20268;-48
2021/03/22 02:56:15;;;;;;;3.92;1.83;;;;;;;;;;5115737;28;20180;-49
2021/03/22 02:58:44;;;;;;;3.75;1.73;;;;;;;;;;5116034;28;20192;-48
2021/03/22 03:01:19;;;;;;;2.97;1.85;;;;;;;;;;5101048;28;20583;-48
2021/03/22 03:03:47;;;;;;;2.53;1.30;;;;;;;;;;5115931;28;20307;-49
2021/03/22 03:06:13;;;;;;;4.13;1.60;;;;;;;;;;5115323;28;20260;-49
2021/03/22 03:08:40;;;;;;;5.50;1.40;;;;;;;;;;5115534;28;20255;-49
2021/03/22 03:11:07;;;;;;;4.65;1.73;;;;;;;;;;5116016;28;20177;-49
2021/03/22 03:13:34;;;;;;;2.75;1.48;;;;;;;;;;5115104;28;20250;-49
2021/03/22 03:16:00;;;;;;;3.35;1.67;;;;;;;;;;5115694;28;20568;-49
2021/03/22 03:18:26;;;;;;;3.22;1.80;;;;;;;;;;5115965;28;20242;-48
2021/03/22 03:20:52;;;;;;;4.18;1.83;;;;;;;;;;5115848;28;20208;-49
2021/03/22 03:23:19;;;;;;;3.28;1.58;;;;;;;;;;5114680;28;20244;-49
2021/03/22 03:25:45;;;;;;;3.05;1.50;;;;;;;;;;5114822;28;20181;-49
2021/03/22 03:28:11;;;;;;;4.32;1.70;;;;;;;;;;5115515;28;20165;-49
2021/03/22 03:30:38;;;;;;;2.35;1.50;;;;;;;;;;5115727;28;20169;-48
2021/03/22 03:33:05;;;;;;;2.95;1.23;;;;;;;;;;5115807;28;20237;-49
2021/03/22 03:35:36;;;;;;;3.03;1.65;;;;;;;;;;5114453;28;20255;-48
2021/03/22 03:38:03;;;;;;;4.43;1.70;;;;;;;;;;5115624;28;20173;-49
2021/03/22 03:40:31;;;;;;;2.13;1.40;;;;;;;;;;5115376;28;20188;-48
2021/03/22 03:42:58;;;;;;;2.35;1.55;;;;;;;;;;5115262;28;20707;-48
2021/03/22 03:45:25;;;;;;;2.75;1.58;;;;;;;;;;5114440;28;20262;-48
2021/03/22 03:47:51;;;;;;;2.67;1.67;;;;;;;;;;5115228;28;20184;-49
2021/03/22 03:50:22;;;;;;;2.33;1.30;;;;;;;;;;5115014;28;20191;-49
2021/03/22 03:52:48;;;;;;;3.33;1.35;;;;;;;;;;5114941;28;20181;-48
2021/03/22 03:55:14;;;;;;;2.92;1.20;;;;;;;;;;5114136;28;20566;-48
2021/03/22 03:57:40;;;;;;;2.38;1.23;;;;;;;;;;5115051;28;20298;-50
2021/03/22 04:00:08;;;;;;;2.20;1.30;;;;;;;;;;5115016;28;20276;-49
2021/03/22 04:02:34;;;;;;;2.58;1.73;;;;;;;;;;5113896;28;20672;-49
2021/03/22 04:05:00;;;;;;;2.60;1.65;;;;;;;;;;5112840;28;20235;-49
2021/03/22 04:07:26;;;;;;;4.47;1.95;;;;;;;;;;5114749;28;20315;-49
2021/03/22 04:09:52;;;;;;;2.17;1.35;;;;;;;;;;5114599;28;20753;-49
2021/03/22 04:12:18;;;;;;;1.52;1.30;;;;;;;;;;5114745;28;20180;-48
2021/03/22 04:14:44;;;;;;;2.50;1.33;;;;;;;;;;5114383;28;20286;-49
2021/03/22 04:17:10;;;;;;;1.73;1.10;;;;;;;;;;5114965;28;20544;-49
2021/03/22 04:19:36;;;;;;;2.97;1.40;;;;;;;;;;5110860;28;20176;-48
2021/03/22 04:22:02;;;;;;;2.97;1.55;;;;;;;;;;5105320;28;20184;-49
2021/03/22 04:24:28;;;;;;;4.68;1.52;;;;;;;;;;5113413;28;20214;-48
2021/03/22 04:26:54;;;;;;;2.60;1.35;;;;;;;;;;5114755;28;20259;-49
2021/03/22 04:29:20;;;;;;;2.15;1.38;;;;;;;;;;5114674;28;20173;-48
2021/03/22 04:31:46;;;;;;;3.28;1.40;;;;;;;;;;5114474;28;20524;-49
2021/03/22 04:34:13;;;;;;;2.17;1.35;;;;;;;;;;5110148;28;20189;-48
2021/03/22 04:36:39;;;;;;;1.70;1.30;;;;;;;;;;5109048;28;20216;-49
2021/03/22 04:39:06;;;;;;;3.90;1.48;;;;;;;;;;5114315;28;20202;-48
2021/03/22 04:41:32;;;;;;;3.97;1.73;;;;;;;;;;5114262;28;20189;-49
2021/03/22 04:43:58;;;;;;;3.03;1.40;;;;;;;;;;5113802;28;20591;-48
2021/03/22 04:46:24;;;;;;;2.53;1.58;;;;;;;;;;5113685;28;20230;-49
2021/03/22 04:48:50;;;;;;;1.92;1.40;;;;;;;;;;5114176;28;20177;-48
2021/03/22 04:51:16;;;;;;;2.15;1.10;;;;;;;;;;5113843;28;20224;-48
2021/03/22 04:53:42;;;;;;;2.58;1.30;;;;;;;;;;5114006;28;20260;-48
2021/03/22 04:56:08;;;;;;;11.23;1.60;;;;;;;;;;5113930;28;20196;-49
2021/03/22 04:58:35;;;;;;;3.45;1.70;;;;;;;;;;5114278;28;20237;-49
2021/03/22 05:01:02;;;;;;;5.85;1.80;;;;;;;;;;5114131;28;20188;-49
2021/03/22 05:03:28;;;;;;;7.07;2.55;;;;;;;;;;5113442;28;20201;-48
2021/03/22 05:05:54;;;;;;;10.88;2.42;;;;;;;;;;5113253;28;20177;-49
2021/03/22 05:08:21;;;;;;;7.60;2.55;;;;;;;;;;5114055;28;20186;-49
2021/03/22 05:10:48;;;;;;;8.95;3.45;;;;;;;;;;5114334;28;20623;-49
2021/03/22 05:13:16;;;;;;;8.07;2.17;;;;;;;;;;5113966;28;20189;-49
2021/03/22 05:15:42;;;;;;;8.00;2.83;;;;;;;;;;5113444;28;20467;-49
2021/03/22 05:18:09;;;;;;;5.47;2.60;;;;;;;;;;5113867;28;20635;-49
2021/03/22 05:20:39;;;;;;;9.18;2.75;;;;;;;;;;5114085;28;20254;-49
2021/03/22 05:23:06;;;;;;;7.72;2.70;;;;;;;;;;5114139;28;20598;-49
2021/03/22 05:25:32;;;;;;;10.45;2.80;;;;;;;;;;5113221;28;20262;-49
2021/03/22 05:27:59;;;;;;;8.95;2.53;;;;;;;;;;5113878;28;20177;-49
2021/03/22 05:30:25;;;;;;;8.40;2.83;;;;;;;;;;5113397;28;20272;-49
2021/03/22 05:32:56;;;;;;;7.32;2.22;;;;;;;;;;5114130;28;20611;-50
2021/03/22 05:35:22;;;;;;;7.78;2.88;;;;;;;;;;5112930;28;20189;-49
2021/03/22 05:37:48;;;;;;;9.63;2.80;;;;;;;;;;5113497;28;20177;-49
2021/03/22 05:40:20;;;;;;;7.57;2.72;;;;;;;;;;5114244;28;20590;-50
2021/03/22 05:42:51;;;;;;;6.93;2.58;;;;;;;;;;5113592;28;20242;-50
2021/03/22 05:45:23;;;;;;;6.65;2.20;;;;;;;;;;5113193;28;20822;-50
2021/03/22 05:47:57;;;;;;;8.52;2.47;;;;;;;;;;5114546;28;20181;-49
2021/03/22 05:50:26;;;;;;;7.32;2.67;;;;;;;;;;5116223;28;20192;-50
2021/03/22 05:53:03;;;;;;;6.25;2.40;;;;;;;;;;5116634;28;20185;-49
2021/03/22 05:55:31;;;;;;;5.22;2.40;;;;;;;;;;5116267;28;20279;-49
2021/03/22 05:58:04;;;;;;;5.30;2.50;;;;;;;;;;5114191;28;20177;-50
2021/03/22 06:00:42;;;;;;;7.68;2.45;;;;;;;;;;5115505;28;20207;-50
2021/03/22 06:03:08;;;;;;;7.18;2.28;;;;;;;;;;5113452;28;20279;-50
2021/03/22 06:05:50;;;;;;;5.47;2.33;;;;;;;;;;5115018;28;20169;-50
2021/03/22 06:08:19;;;;;;;5.35;2.10;;;;;;;;;;5116198;28;20183;-50
2021/03/22 06:10:48;;;;;;;7.10;2.60;;;;;;;;;;5116559;28;20170;-50
2021/03/22 06:13:15;;;;;;;7.00;2.60;;;;;;;;;;5117056;28;20214;-49
2021/03/22 06:15:47;;;;;;;6.00;2.75;;;;;;;;;;5116268;28;20185;-49
2021/03/22 06:18:17;;;;;;;5.03;1.92;;;;;;;;;;5113632;28;20276;-50
2021/03/22 06:20:44;;;;;;;4.40;2.10;;;;;;;;;;5102469;28;20519;-49
2021/03/22 06:23:22;;;;;;;5.78;2.17;;;;;;;;;;5106621;28;20205;-49
2021/03/22 06:25:49;;;;;;;5.93;2.45;;;;;;;;;;5116284;28;20180;-49
2021/03/22 06:28:14;;;;;;;5.03;2.40;;;;;;;;;;5116528;28;20181;-50
2021/03/22 06:30:51;;;;;;;4.40;2.25;;;;;;;;;;5116878;28;20667;-49
2021/03/22 06:33:26;;;;;;;4.18;2.00;;;;;;;;;;5116334;28;20256;-50
2021/03/22 06:35:52;;;;;;;5.50;2.28;;;;;;;;;;5105357;28;20187;-49
2021/03/22 06:38:18;;;;;;;5.18;2.10;;;;;;;;;;5116318;28;20441;-50
2021/03/22 06:40:44;;;;;;;4.90;2.05;;;;;;;;;;5116466;28;20268;-49
2021/03/22 06:43:12;;;;;;;3.83;2.00;;;;;;;;;;5116170;28;20196;-50
2021/03/22 06:45:43;;;;;;;5.78;2.28;;;;;;;;;;5115820;28;20180;-49
2021/03/22 06:48:14;;;;;;;4.60;1.92;;;;;;;;;;5116154;28;20472;-49
2021/03/22 06:50:40;;;;;;;4.78;2.13;;;;;;;;;;5115202;28;20578;-49
2021/03/22 06:53:06;;;;;;;6.25;2.50;;;;;;;;;;5115953;28;20783;-49
2021/03/22 06:55:35;;;;;;;5.53;2.20;;;;;;;;;;5115300;28;20268;-50
2021/03/22 06:58:01;;;;;;;3.70;2.03;;;;;;;;;;5115876;28;20208;-50
2021/03/22 07:00:34;;;;;;;4.80;2.05;;;;;;;;;;5111641;28;20216;-49
2021/03/22 07:03:00;;;;;;;5.50;2.20;;;;;;;;;;5098650;28;20209;-49
2021/03/22 07:05:29;;;;;;;3.88;2.17;;;;;;;;;;5115389;28;20210;-49
2021/03/22 07:07:57;;;;;;;3.90;1.77;;;;;;;;;;5115893;28;20260;-50
2021/03/22 07:10:25;;;;;;;3.90;1.80;;;;;;;;;;5115813;28;20209;-49
2021/03/22 07:13:23;;;;;;;5.70;2.15;;;;;;;;;;5113854;28;20185;-49
2021/03/22 07:15:50;;;;;;;5.15;1.85;;;;;;;;;;5061118;28;20193;-49
2021/03/22 07:18:18;;;;;;;3.75;1.70;;;;;;;;;;5115256;28;20218;-49
2021/03/22 07:20:47;;;;;;;4.70;1.73;;;;;;;;;;5115770;28;20177;-49
2021/03/22 07:23:31;;;;;;;3.83;1.98;;;;;;;;;;5115383;28;20258;-50
2021/03/22 07:26:03;;;;;;;3.42;1.85;;;;;;;;;;5109952;28;20188;-49
2021/03/22 07:28:40;;;;;;;4.18;1.88;;;;;;;;;;5113555;28;20184;-50
2021/03/22 07:31:12;;;;;;;4.90;2.15;;;;;;;;;;5111794;28;20226;-50
2021/03/22 07:33:41;;;;;;;3.63;2.25;;;;;;;;;;5113352;28;20181;-50
2021/03/22 07:36:07;;;;;;;3.42;1.90;;;;;;;;;;5113354;28;20184;-50
2021/03/22 07:38:52;;;;;;;4.63;1.98;;;;;;;;;;5110614;28;20186;-50
2021/03/22 07:41:24;;;;;;;3.65;1.58;;;;;;;;;;5103156;28;20195;-50
2021/03/22 07:43:59;;;;;;;2.90;1.60;;;;;;;;;;5113256;28;20216;-50
2021/03/22 07:46:25;;;;;;;3.42;1.63;;;;;;;;;;5112640;28;20191;-50
2021/03/22 07:48:54;;;;;;;5.20;1.80;;;;;;;;;;5113879;28;20449;-50
2021/03/22 07:51:39;;;;;;;3.58;1.80;;;;;;;;;;5111286;28;20582;-50
2021/03/22 07:54:25;;;;;;;4.72;1.90;;;;;;;;;;5112861;28;20230;-50
2021/03/22 07:57:11;;;;;;;4.68;1.80;;;;;;;;;;5112980;28;20185;-50
2021/03/22 07:59:43;;;;;;;3.72;1.95;;;;;;;;;;5114785;28;20213;-50
2021/03/22 08:02:17;;;;;;;3.97;1.92;;;;;;;;;;5115434;28;20205;-50
2021/03/22 08:04:47;;;;;;;4.47;2.15;;;;;;;;;;5114300;28;20212;-50
2021/03/22 08:07:12;;;;;;;3.03;2.05;;;;;;;;;;5114431;28;20574;-50
2021/03/22 08:09:51;;;;;;;3.75;1.83;;;;;;;;;;5114259;28;20181;-50
2021/03/22 08:12:24;;;;;;;3.25;1.70;;;;;;;;;;5114549;28;20188;-50
2021/03/22 08:14:54;;;;;;;5.40;2.05;;;;;;;;;;5113940;28;20184;-49
2021/03/22 08:17:33;;;;;;;4.82;1.85;;;;;;;;;;5113113;28;20313;-50
2021/03/22 08:20:02;;;;;;;5.78;1.85;;;;;;;;;;5113845;28;20289;-49
2021/03/22 08:22:38;;;;;;;4.20;1.90;;;;;;;;;;5101127;28;20197;-49
2021/03/22 08:25:43;;;;;;;3.05;1.80;;;;;;;;;;5105821;28;20179;-50
2021/03/22 08:28:27;;;;;;;2.08;1.45;;;;;;;;;;5027030;28;20275;-50
2021/03/22 08:30:56;;;;;;;3.13;1.98;;;;;;;;;;5020972;28;20311;-50
2021/03/22 08:33:28;;;;;;;3.65;1.88;;;;;;;;;;5082411;28;20197;-50
2021/03/22 08:36:04;;;;;;;2.95;1.75;;;;;;;;;;5110183;28;20227;-50
2021/03/22 08:38:35;;;;;;;4.78;2.10;;;;;;;;;;5114344;28;20169;-50
2021/03/22 08:41:01;;;;;;;5.15;1.90;;;;;;;;;;5114569;28;20177;-49
2021/03/22 08:43:36;;;;;;;4.85;2.00;;;;;;;;;;5114057;28;20472;-50
2021/03/22 08:46:05;;;;;;;2.67;1.67;;;;;;;;;;5113922;28;20622;-50
2021/03/22 08:48:32;;;;;;;3.40;1.77;;;;;;;;;;5106270;28;20181;-50
2021/03/22 08:50:59;;;;;;;2.97;1.50;;;;;;;;;;5102530;28;20196;-50
2021/03/22 08:53:26;;;;;;;4.18;2.05;;;;;;;;;;5114462;28;20180;-50
2021/03/22 08:55:57;;;;;;;3.90;1.58;;;;;;;;;;5109981;28;20280;-50
2021/03/22 08:58:46;;;;;;;2.42;1.30;;;;;;;;;;5109891;28;20177;-49
2021/03/22 09:01:28;;;;;;;3.72;1.50;;;;;;;;;;5113848;28;20706;-50
2021/03/22 09:03:58;;;;;;;3.20;1.50;;;;;;;;;;5093857;28;20557;-50
2021/03/22 09:06:27;;;;;;;3.97;1.80;;;;;;;;;;5102909;28;20169;-49
2021/03/22 09:08:54;;;;;;;2.85;1.88;;;;;;;;;;5101684;28;20439;-50
2021/03/22 09:11:27;;;;;;;2.38;1.70;;;;;;;;;;5114080;28;20187;-50
2021/03/22 09:13:54;;;;;;;4.05;1.60;;;;;;;;;;5094389;28;20265;-50
2021/03/22 09:16:23;;;;;;;2.80;1.63;;;;;;;;;;5111700;28;20180;-50
2021/03/22 09:19:04;;;;;;;2.17;1.38;;;;;;;;;;5106918;28;20209;-50
2021/03/22 09:21:30;;;;;;;3.38;1.70;;;;;;;;;;5102487;28;20306;-49
2021/03/22 09:23:56;;;;;;;3.08;1.50;;;;;;;;;;5104046;28;20189;-49
2021/03/22 09:27:01;;;;;;;3.60;1.63;;;;;;;;;;5117206;28;20170;-50
2021/03/22 09:29:33;;;;;;;2.10;1.30;;;;;;;;;;4996242;28;20201;-49
2021/03/22 09:32:00;;;;;;;2.30;1.77;;;;;;;;;;5008289;28;20271;-50
2021/03/22 09:34:35;;;;;;;2.90;1.80;;;;;;;;;;5055446;28;20197;-50
2021/03/22 09:37:21;;;;;;;4.75;1.40;;;;;;;;;;5113563;28;20207;-50
2021/03/22 09:39:48;;;;;;;3.63;1.60;;;;;;;;;;5107370;28;20505;-50
2021/03/22 09:42:17;;;;;;;2.20;1.30;;;;;;;;;;5110691;28;20250;-50
2021/03/22 09:44:55;;;;;;;2.00;1.30;;;;;;;;;;5115145;28;20491;-50
2021/03/22 09:47:26;;;;;;;2.53;1.30;;;;;;;;;;5108569;28;20181;-50
2021/03/22 09:50:01;;;;;;;3.25;1.55;;;;;;;;;;5099302;28;20179;-50
2021/03/22 09:52:29;;;;;;;3.40;1.80;;;;;;;;;;5116709;28;20184;-50
2021/03/22 09:54:56;;;;;;;3.70;1.60;;;;;;;;;;5112926;28;20202;-50
2021/03/22 09:57:28;;;;;;;2.50;1.60;;;;;;;;;;5102003;28;20182;-50
2021/03/22 10:00:13;;;;;;;2.97;1.75;;;;;;;;;;5110000;28;20563;-50
2021/03/22 10:02:43;;;;;;;2.45;1.23;;;;;;;;;;5115368;28;20203;-50
2021/03/22 10:05:10;;;;;;;3.40;1.50;;;;;;;;;;5110018;28;20241;-50
2021/03/22 10:07:39;;;;;;;2.05;1.30;;;;;;;;;;5108838;28;20188;-50
2021/03/22 10:10:05;;;;;;;2.80;1.40;;;;;;;;;;5109641;28;20181;-50
2021/03/22 10:12:41;;;;;;;1.60;1.40;;;;;;;;;;5111730;28;20566;-50
2021/03/22 10:15:18;;;;;;;2.65;1.60;;;;;;;;;;5104904;28;20173;-50
2021/03/22 10:17:57;;;;;;;2.20;1.50;;;;;;;;;;5114020;28;20180;-50
2021/03/22 10:20:41;;;;;;;3.90;1.50;;;;;;;;;;5109661;28;20566;-50
2021/03/22 10:23:31;;;;;;;3.45;1.50;;;;;;;;;;5097978;28;20565;-50
2021/03/22 10:26:04;;;;;;;2.13;1.67;;;;;;;;;;5101556;28;20182;-50
2021/03/22 10:28:30;;;;;;;3.15;1.50;;;;;;;;;;5102636;28;20201;-50
2021/03/22 10:30:58;;;;;;;1.77;1.27;;;;;;;;;;5111039;28;20180;-50
2021/03/22 10:33:24;;;;;;;2.55;1.60;;;;;;;;;;5104765;28;20233;-50
2021/03/22 10:35:59;;;;;;;3.35;1.42;;;;;;;;;;5108404;28;20178;-50
2021/03/22 10:38:26;;;;;;;1.55;1.20;;;;;;;;;;5104427;28;20210;-50
2021/03/22 10:40:53;;;;;;;1.90;1.40;;;;;;;;;;5106823;28;20286;-50
2021/03/22 10:43:26;;;;;;;3.40;1.50;;;;;;;;;;5105444;28;20208;-49
2021/03/22 10:45:52;;;;;;;3.55;1.48;;;;;;;;;;5108440;28;20173;-50
2021/03/22 10:48:20;;;;;;;1.77;1.20;;;;;;;;;;5104974;28;20557;-50
2021/03/22 10:50:46;;;;;;;2.95;1.50;;;;;;;;;;5110349;28;20173;-50
2021/03/22 10:53:12;;;;;;;2.65;1.40;;;;;;;;;;5116057;28;20185;-50
2021/03/22 10:55:39;;;;;;;2.67;1.10;;;;;;;;;;5103673;28;20212;-50
2021/03/22 10:58:07;;;;;;;1.73;1.20;;;;;;;;;;5095797;28;20174;-49
2021/03/22 11:00:43;;;;;;;2.63;1.50;;;;;;;;;;5114251;28;20216;-50
2021/03/22 11:03:10;;;;;;;1.48;1.23;;;;;;;;;;5116222;28;20196;-49
2021/03/22 11:05:40;;;;;;;2.78;1.38;;;;;;;;;;5115082;28;20177;-50
2021/03/22 11:08:07;;;;;;;3.25;1.45;;;;;;;;;;5115520;28;20571;-50
2021/03/22 11:10:35;;;;;;;2.30;1.45;;;;;;;;;;5115167;28;20185;-49
2021/03/22 11:13:02;;;;;;;2.60;1.38;;;;;;;;;;5115513;28;20502;-50
2021/03/22 11:15:33;;;;;;;4.53;2.10;;;;;;;;;;5114653;28;20195;-50
2021/03/22 11:17:59;;;;;;;12.35;2.72;;;;;;;;;;5114951;28;20215;-50
2021/03/22 11:20:28;;;;;;;9.75;3.95;;;;;;;;;;5115292;28;20586;-49
2021/03/22 11:23:12;;;;;;;14.90;4.68;;;;;;;;;;5114575;28;20292;-50
2021/03/22 11:25:39;;;;;;;12.55;4.57;;;;;;;;;;5114517;28;20177;-50
2021/03/22 11:28:14;;;;;;;17.08;5.00;;;;;;;;;;5115773;28;20162;-49
2021/03/22 11:30:59;;;;;;;16.10;5.60;;;;;;;;;;5115030;28;20264;-49
2021/03/22 11:33:28;;;;;;;16.45;5.80;;;;;;;;;;5115334;28;20197;-49
2021/03/22 11:36:14;;;;;;;17.52;7.38;;;;;;;;;;5108552;28;20252;-49
2021/03/22 11:38:46;;;;;;;25.25;10.18;;;;;;;;;;5097564;28;20658;-50
2021/03/22 11:41:25;;;;;;;36.00;12.75;;;;;;;;;;5114812;28;20177;-49
2021/03/22 11:44:01;;;;;;;33.03;17.13;;;;;;;;;;5114480;28;20204;-50
2021/03/22 11:46:27;;;;;;;43.75;21.40;;;;;;;;;;5114318;28;20192;-50
2021/03/22 11:48:53;;;;;;;58.40;29.80;;;;;;;;;;5115373;28;20225;-50
2021/03/22 11:51:19;;;;;;;66.00;35.35;;;;;;;;;;5114799;28;20631;-49
2021/03/22 11:54:03;;;;;;;79.53;38.47;;;;;;;;;;5097412;28;20181;-49
2021/03/22 11:56:30;;;;;;;78.75;41.85;;;;;;;;;;5113947;28;20236;-49
2021/03/22 11:59:16;;;;;;;72.45;41.33;;;;;;;;;;5113931;28;20176;-50
2021/03/22 12:01:43;;;;;;;78.82;41.20;;;;;;;;;;5100605;28;20189;-49
2021/03/22 12:04:09;;;;;;;69.43;39.47;;;;;;;;;;5109693;28;20649;-49
2021/03/22 12:06:50;;;;;;;77.03;39.88;;;;;;;;;;5114500;28;20181;-49
2021/03/22 12:09:17;;;;;;;76.18;38.97;;;;;;;;;;5114530;28;20169;-49
2021/03/22 12:11:43;;;;;;;73.70;37.70;;;;;;;;;;5114479;28;20185;-49
2021/03/22 12:14:09;;;;;;;63.55;35.08;;;;;;;;;;5114795;28;20169;-50
2021/03/22 12:16:36;;;;;;;54.28;32.13;;;;;;;;;;5114815;28;20200;-49
2021/03/22 12:19:07;;;;;;;60.65;32.58;;;;;;;;;;5111374;28;20181;-50
2021/03/22 12:21:33;;;;;;;55.85;31.38;;;;;;;;;;5094909;28;20306;-50
2021/03/22 12:24:00;;;;;;;53.90;30.58;;;;;;;;;;5101049;28;20910;-50
2021/03/22 12:26:29;;;;;;;53.75;28.00;;;;;;;;;;5094450;28;20185;-50
2021/03/22 12:28:56;;;;;;;48.20;26.98;;;;;;;;;;5113659;28;20178;-50
2021/03/22 12:31:23;;;;;;;50.20;25.58;;;;;;;;;;5096660;28;20169;-50
2021/03/22 12:33:50;;;;;;;41.55;23.70;;;;;;;;;;5094160;28;20196;-49
2021/03/22 12:36:16;;;;;;;43.10;23.13;;;;;;;;;;5113583;28;20810;-49
2021/03/22 12:38:42;;;;;;;42.85;22.98;;;;;;;;;;5114419;28;20452;-50
2021/03/22 12:41:08;;;;;;;44.70;22.15;;;;;;;;;;5114841;28;20544;-50
2021/03/22 12:43:35;;;;;;;38.15;20.48;;;;;;;;;;5114023;28;20196;-49
2021/03/22 12:46:01;;;;;;;38.47;19.85;;;;;;;;;;5113622;28;20188;-49
2021/03/22 12:48:27;;;;;;;33.13;17.48;;;;;;;;;;5113925;28;20617;-50
2021/03/22 12:50:54;;;;;;;37.22;18.33;;;;;;;;;;5111564;28;20467;-50
2021/03/22 12:53:20;;;;;;;34.05;16.90;;;;;;;;;;5113629;28;20189;-50
2021/03/22 12:55:46;;;;;;;27.65;15.70;;;;;;;;;;5114828;28;20208;-50
2021/03/22 12:58:15;;;;;;;34.00;15.85;;;;;;;;;;5118722;28;20177;-50
2021/03/22 13:00:42;;;;;;;31.52;15.35;;;;;;;;;;5117846;28;20184;-50
2021/03/22 13:03:09;;;;;;;27.60;14.00;;;;;;;;;;5117995;28;20196;-50
2021/03/22 13:05:35;;;;;;;24.75;13.95;;;;;;;;;;5116823;28;20173;-50
2021/03/22 13:08:01;;;;;;;23.80;12.63;;;;;;;;;;5113200;28;20210;-50
2021/03/22 13:10:31;;;;;;;28.20;12.80;;;;;;;;;;5102935;28;20181;-50
2021/03/22 13:12:57;;;;;;;25.08;12.43;;;;;;;;;;5097996;28;20447;-49
2021/03/22 13:15:32;;;;;;;21.98;10.80;;;;;;;;;;5115525;28;20295;-49
2021/03/22 13:17:58;;;;;;;22.70;10.32;;;;;;;;;;5117525;28;20938;-49
2021/03/22 13:20:25;;;;;;;20.17;8.98;;;;;;;;;;5113368;28;20528;-49
2021/03/22 13:22:51;;;;;;;16.88;8.13;;;;;;;;;;5117095;28;20271;-49
2021/03/22 13:25:17;;;;;;;20.38;7.97;;;;;;;;;;5115952;28;20268;-49
2021/03/22 13:27:44;;;;;;;12.85;6.88;;;;;;;;;;5117634;28;20165;-49
2021/03/22 13:30:11;;;;;;;18.83;7.47;;;;;;;;;;5117539;28;20494;-50
2021/03/22 13:32:37;;;;;;;14.57;6.72;;;;;;;;;;5117073;28;20196;-49
2021/03/22 13:35:04;;;;;;;15.57;6.65;;;;;;;;;;5106870;28;20545;-49
2021/03/22 13:37:30;;;;;;;13.57;6.10;;;;;;;;;;5097158;28;20170;-50
2021/03/22 13:39:56;;;;;;;19.55;6.63;;;;;;;;;;5099521;28;20178;-49
2021/03/22 13:42:22;;;;;;;12.77;5.85;;;;;;;;;;5116982;28;20466;-49
2021/03/22 13:44:49;;;;;;;16.48;6.38;;;;;;;;;;5116103;28;20197;-50
2021/03/22 13:47:15;;;;;;;12.98;5.68;;;;;;;;;;5099658;28;20544;-49
2021/03/22 13:49:41;;;;;;;17.67;5.38;;;;;;;;;;5116518;28;20186;-50
2021/03/22 13:52:10;;;;;;;12.23;5.30;;;;;;;;;;5117154;28;20185;-50
2021/03/22 13:54:36;;;;;;;13.85;5.30;;;;;;;;;;5096167;28;20201;-49
2021/03/22 13:57:02;;;;;;;14.02;5.22;;;;;;;;;;5110827;28;20181;-49
2021/03/22 13:59:30;;;;;;;9.50;4.60;;;;;;;;;;5116799;28;20196;-49
2021/03/22 14:01:56;;;;;;;10.10;4.57;;;;;;;;;;5116994;28;20582;-50
2021/03/22 14:04:23;;;;;;;11.27;4.82;;;;;;;;;;5115755;28;20491;-49
2021/03/22 14:06:50;;;;;;;11.73;4.93;;;;;;;;;;5115729;28;20181;-49
2021/03/22 14:09:16;;;;;;;12.48;4.05;;;;;;;;;;5117080;28;20260;-49
2021/03/22 14:11:43;;;;;;;12.27;4.68;;;;;;;;;;5116555;28;20173;-50
2021/03/22 14:14:11;;;;;;;9.88;4.43;;;;;;;;;;5116223;28;20192;-50
2021/03/22 14:16:37;;;;;;;9.65;4.45;;;;;;;;;;5115384;28;20483;-50
2021/03/22 14:19:04;;;;;;;9.07;4.60;;;;;;;;;;5117147;28;20462;-49
2021/03/22 14:21:30;;;;;;;8.77;3.80;;;;;;;;;;5116429;28;20199;-49
2021/03/22 14:23:56;;;;;;;11.80;3.88;;;;;;;;;;5116613;28;20189;-49
2021/03/22 14:26:22;;;;;;;13.80;4.93;;;;;;;;;;5114921;28;20188;-50
2021/03/22 14:28:49;;;;;;;10.35;4.72;;;;;;;;;;5112607;28;20429;-49
2021/03/22 14:31:16;;;;;;;12.85;4.60;;;;;;;;;;5116512;28;20200;-49
2021/03/22 14:33:43;;;;;;;9.57;4.22;;;;;;;;;;5116900;28;20273;-50
2021/03/22 14:36:09;;;;;;;11.65;4.13;;;;;;;;;;5105272;28;20178;-50
2021/03/22 14:38:35;;;;;;;14.40;4.57;;;;;;;;;;5104355;28;20221;-50
2021/03/22 14:41:02;;;;;;;10.00;4.25;;;;;;;;;;5096100;28;20176;-49
2021/03/22 14:43:28;;;;;;;8.00;3.63;;;;;;;;;;5095785;28;20197;-50
2021/03/22 14:45:54;;;;;;;7.72;3.63;;;;;;;;;;5105153;28;20285;-49
2021/03/22 14:48:20;;;;;;;9.63;3.45;;;;;;;;;;5116235;28;20210;-49
2021/03/22 14:50:46;;;;;;;10.60;3.90;;;;;;;;;;5116596;28;20169;-49
2021/03/22 14:53:12;;;;;;;9.10;3.50;;;;;;;;;;5116243;28;20255;-50